sensor_id;sensor_type;location;lat;lon;timestamp;pressure;altitude;pressure_sealevel;temperature;humidity
66945;BME280;53853;51.982;5.928;2023-01-31T00:01:29;102283.91;;;5.12;73.77
66945;BME280;53853;51.982;5.928;2023-01-31T00:04:01;102283.13;;;5.10;73.22
66945;BME280;53853;51.982;5.928;2023-01-31T00:06:33;102285.00;;;5.07;73.73
66945;BME280;53853;51.982;5.928;2023-01-31T00:09:06;102292.94;;;5.07;73.46
66945;BME280;53853;51.982;5.928;2023-01-31T00:11:36;102302.69;;;5.05;73.37
66945;BME280;53853;51.982;5.928;2023-01-31T00:14:09;102307.22;;;5.03;73.19
66945;BME280;53853;51.982;5.928;2023-01-31T00:16:39;102315.22;;;5.02;73.02
66945;BME280;53853;51.982;5.928;2023-01-31T00:19:09;102304.72;;;5.00;73.29
66945;BME280;53853;51.982;5.928;2023-01-31T00:21:39;102309.16;;;5.00;73.09
66945;BME280;53853;51.982;5.928;2023-01-31T00:24:12;102316.22;;;4.99;73.26
66945;BME280;53853;51.982;5.928;2023-01-31T00:26:42;102304.88;;;4.97;73.22
66945;BME280;53853;51.982;5.928;2023-01-31T00:29:14;102305.81;;;4.96;73.35
66945;BME280;53853;51.982;5.928;2023-01-31T00:31:45;102320.19;;;4.90;73.36
66945;BME280;53853;51.982;5.928;2023-01-31T00:34:17;102302.06;;;4.83;73.51
66945;BME280;53853;51.982;5.928;2023-01-31T00:36:47;102306.66;;;4.79;73.70
66945;BME280;53853;51.982;5.928;2023-01-31T00:39:17;102303.06;;;4.80;73.83
66945;BME280;53853;51.982;5.928;2023-01-31T00:41:47;102297.03;;;4.78;73.81
66945;BME280;53853;51.982;5.928;2023-01-31T00:44:19;102289.31;;;4.74;74.08
66945;BME280;53853;51.982;5.928;2023-01-31T00:46:49;102295.72;;;4.69;74.18
66945;BME280;53853;51.982;5.928;2023-01-31T00:49:19;102286.06;;;4.68;74.17
66945;BME280;53853;51.982;5.928;2023-01-31T00:51:49;102278.28;;;4.65;74.10
66945;BME280;53853;51.982;5.928;2023-01-31T00:54:18;102284.50;;;4.64;74.39
66945;BME280;53853;51.982;5.928;2023-01-31T00:56:49;102279.28;;;4.63;74.29
66945;BME280;53853;51.982;5.928;2023-01-31T00:59:21;102288.22;;;4.60;74.33
66945;BME280;53853;51.982;5.928;2023-01-31T01:01:51;102282.22;;;4.57;74.36
66945;BME280;53853;51.982;5.928;2023-01-31T01:04:21;102276.31;;;4.51;74.36
66945;BME280;53853;51.982;5.928;2023-01-31T01:06:51;102275.47;;;4.51;74.37
66945;BME280;53853;51.982;5.928;2023-01-31T01:09:21;102267.56;;;4.51;74.40
66945;BME280;53853;51.982;5.928;2023-01-31T01:11:52;102267.63;;;4.49;74.42
66945;BME280;53853;51.982;5.928;2023-01-31T01:14:24;102268.63;;;4.47;74.42
66945;BME280;53853;51.982;5.928;2023-01-31T01:16:54;102259.94;;;4.45;74.59
66945;BME280;53853;51.982;5.928;2023-01-31T01:19:25;102267.16;;;4.41;74.40
66945;BME280;53853;51.982;5.928;2023-01-31T01:21:55;102266.50;;;4.36;74.49
66945;BME280;53853;51.982;5.928;2023-01-31T01:24:25;102269.22;;;4.34;74.52
66945;BME280;53853;51.982;5.928;2023-01-31T01:26:55;102268.38;;;4.34;74.40
66945;BME280;53853;51.982;5.928;2023-01-31T01:29:28;102261.47;;;4.31;74.50
66945;BME280;53853;51.982;5.928;2023-01-31T01:31:58;102265.03;;;4.30;74.43
66945;BME280;53853;51.982;5.928;2023-01-31T01:34:27;102264.19;;;4.30;74.49
66945;BME280;53853;51.982;5.928;2023-01-31T01:36:57;102272.25;;;4.27;74.68
66945;BME280;53853;51.982;5.928;2023-01-31T01:39:27;102273.09;;;4.27;74.43
66945;BME280;53853;51.982;5.928;2023-01-31T01:41:57;102276.66;;;4.26;74.53
66945;BME280;53853;51.982;5.928;2023-01-31T01:44:48;102282.72;;;4.28;74.33
66945;BME280;53853;51.982;5.928;2023-01-31T01:47:36;102280.09;;;4.28;74.64
66945;BME280;53853;51.982;5.928;2023-01-31T01:50:13;102289.78;;;4.28;74.69
66945;BME280;53853;51.982;5.928;2023-01-31T01:52:47;102288.00;;;4.28;74.54
66945;BME280;53853;51.982;5.928;2023-01-31T01:55:22;102280.25;;;4.25;74.47
66945;BME280;53853;51.982;5.928;2023-01-31T01:57:57;102278.50;;;4.24;74.54
66945;BME280;53853;51.982;5.928;2023-01-31T02:00:31;102283.78;;;4.24;74.61
66945;BME280;53853;51.982;5.928;2023-01-31T02:03:02;102283.78;;;4.24;74.48
66945;BME280;53853;51.982;5.928;2023-01-31T02:05:36;102278.59;;;4.23;74.42
66945;BME280;53853;51.982;5.928;2023-01-31T02:08:07;102278.59;;;4.23;74.67
66945;BME280;53853;51.982;5.928;2023-01-31T02:10:42;102276.78;;;4.23;74.61
66945;BME280;53853;51.982;5.928;2023-01-31T02:13:16;102278.66;;;4.21;74.97
66945;BME280;53853;51.982;5.928;2023-01-31T02:15:49;102283.94;;;4.21;74.88
66945;BME280;53853;51.982;5.928;2023-01-31T02:18:21;102283.88;;;4.23;74.73
66945;BME280;53853;51.982;5.928;2023-01-31T02:27:13;102281.63;;;4.32;75.05
66945;BME280;53853;51.982;5.928;2023-01-31T02:30:15;102284.81;;;4.39;74.88
66945;BME280;53853;51.982;5.928;2023-01-31T02:33:12;102277.50;;;4.46;74.93
66945;BME280;53853;51.982;5.928;2023-01-31T02:35:56;102280.69;;;4.52;74.90
66945;BME280;53853;51.982;5.928;2023-01-31T02:38:38;102279.72;;;4.53;74.90
66945;BME280;53853;51.982;5.928;2023-01-31T02:41:16;102275.34;;;4.54;75.06
66945;BME280;53853;51.982;5.928;2023-01-31T02:43:53;102269.91;;;4.57;75.13
66945;BME280;53853;51.982;5.928;2023-01-31T02:46:56;102266.88;;;4.65;75.10
66945;BME280;53853;51.982;5.928;2023-01-31T02:49:35;102266.56;;;4.71;75.09
66945;BME280;53853;51.982;5.928;2023-01-31T02:52:17;102253.13;;;4.76;74.81
66945;BME280;53853;51.982;5.928;2023-01-31T02:55:01;102248.47;;;4.81;74.70
66945;BME280;53853;51.982;5.928;2023-01-31T02:57:48;102252.75;;;4.83;74.62
66945;BME280;53853;51.982;5.928;2023-01-31T03:00:21;102250.19;;;4.82;74.59
66945;BME280;53853;51.982;5.928;2023-01-31T03:02:51;102244.66;;;4.86;74.73
66945;BME280;53853;51.982;5.928;2023-01-31T03:05:25;102234.00;;;4.88;74.50
66945;BME280;53853;51.982;5.928;2023-01-31T03:07:58;102226.84;;;4.90;74.42
66945;BME280;53853;51.982;5.928;2023-01-31T03:10:50;102224.94;;;4.94;74.18
66945;BME280;53853;51.982;5.928;2023-01-31T03:13:40;102223.06;;;4.96;74.17
66945;BME280;53853;51.982;5.928;2023-01-31T03:16:19;102223.91;;;4.96;74.44
66945;BME280;53853;51.982;5.928;2023-01-31T03:19:08;102228.19;;;4.99;74.23
66945;BME280;53853;51.982;5.928;2023-01-31T03:21:49;102218.31;;;5.02;74.21
66945;BME280;53853;51.982;5.928;2023-01-31T03:24:22;102223.59;;;5.02;74.02
66945;BME280;53853;51.982;5.928;2023-01-31T03:26:57;102227.78;;;5.06;74.06
66945;BME280;53853;51.982;5.928;2023-01-31T03:29:34;102221.66;;;5.06;74.34
66945;BME280;53853;51.982;5.928;2023-01-31T03:32:09;102220.63;;;5.08;74.38
66945;BME280;53853;51.982;5.928;2023-01-31T03:34:40;102223.28;;;5.08;74.36
66945;BME280;53853;51.982;5.928;2023-01-31T03:37:19;102221.47;;;5.09;74.36
66945;BME280;53853;51.982;5.928;2023-01-31T03:39:58;102218.59;;;5.14;74.53
66945;BME280;53853;51.982;5.928;2023-01-31T03:42:36;102231.56;;;5.18;74.81
66945;BME280;53853;51.982;5.928;2023-01-31T03:45:13;102220.00;;;5.21;74.76
66945;BME280;53853;51.982;5.928;2023-01-31T03:47:47;102216.34;;;5.23;74.77
66945;BME280;53853;51.982;5.928;2023-01-31T03:50:22;102212.59;;;5.28;75.05
66945;BME280;53853;51.982;5.928;2023-01-31T03:53:03;102209.72;;;5.32;75.09
66945;BME280;53853;51.982;5.928;2023-01-31T03:55:38;102202.53;;;5.34;75.35
66945;BME280;53853;51.982;5.928;2023-01-31T03:58:12;102206.91;;;5.35;75.58
66945;BME280;53853;51.982;5.928;2023-01-31T04:00:45;102208.53;;;5.38;75.38
66945;BME280;53853;51.982;5.928;2023-01-31T04:03:24;102195.31;;;5.38;75.44
66945;BME280;53853;51.982;5.928;2023-01-31T04:05:56;102201.28;;;5.41;75.65
66945;BME280;53853;51.982;5.928;2023-01-31T04:08:30;102195.00;;;5.44;75.83
66945;BME280;53853;51.982;5.928;2023-01-31T04:11:08;102189.59;;;5.45;75.86
66945;BME280;53853;51.982;5.928;2023-01-31T04:13:38;102187.75;;;5.48;76.06
66945;BME280;53853;51.982;5.928;2023-01-31T04:16:08;102193.94;;;5.47;76.14
66945;BME280;53853;51.982;5.928;2023-01-31T04:18:38;102193.94;;;5.47;76.21
66945;BME280;53853;51.982;5.928;2023-01-31T04:21:08;102194.78;;;5.47;76.14
66945;BME280;53853;51.982;5.928;2023-01-31T04:23:41;102191.22;;;5.48;76.04
66945;BME280;53853;51.982;5.928;2023-01-31T04:26:10;102184.13;;;5.49;75.94
66945;BME280;53853;51.982;5.928;2023-01-31T04:28:40;102187.66;;;5.49;75.82
66945;BME280;53853;51.982;5.928;2023-01-31T04:31:10;102187.56;;;5.51;76.02
66945;BME280;53853;51.982;5.928;2023-01-31T04:33:40;102187.50;;;5.52;76.16
66945;BME280;53853;51.982;5.928;2023-01-31T04:36:10;102179.47;;;5.54;76.30
66945;BME280;53853;51.982;5.928;2023-01-31T04:38:42;102175.13;;;5.53;76.64
66945;BME280;53853;51.982;5.928;2023-01-31T04:41:12;102176.03;;;5.52;76.87
66945;BME280;53853;51.982;5.928;2023-01-31T04:43:42;102171.72;;;5.51;76.88
66945;BME280;53853;51.982;5.928;2023-01-31T04:46:12;102169.16;;;5.49;76.87
66945;BME280;53853;51.982;5.928;2023-01-31T04:48:42;102169.06;;;5.51;76.86
66945;BME280;53853;51.982;5.928;2023-01-31T04:51:12;102153.19;;;5.51;76.77
66945;BME280;53853;51.982;5.928;2023-01-31T04:53:45;102165.28;;;5.55;76.92
66945;BME280;53853;51.982;5.928;2023-01-31T04:56:15;102165.28;;;5.55;77.08
66945;BME280;53853;51.982;5.928;2023-01-31T04:58:45;102166.16;;;5.55;76.89
66945;BME280;53853;51.982;5.928;2023-01-31T05:01:15;102158.25;;;5.55;76.98
66945;BME280;53853;51.982;5.928;2023-01-31T05:03:44;102153.97;;;5.53;77.05
66945;BME280;53853;51.982;5.928;2023-01-31T05:06:14;102146.78;;;5.55;77.36
66945;BME280;53853;51.982;5.928;2023-01-31T05:08:47;102141.50;;;5.55;77.23
66945;BME280;53853;51.982;5.928;2023-01-31T05:11:18;102123.69;;;5.58;77.13
66945;BME280;53853;51.982;5.928;2023-01-31T05:13:48;102120.00;;;5.61;77.17
66945;BME280;53853;51.982;5.928;2023-01-31T05:16:18;102116.53;;;5.60;77.02
66945;BME280;53853;51.982;5.928;2023-01-31T05:18:48;102118.31;;;5.60;77.13
66945;BME280;53853;51.982;5.928;2023-01-31T05:21:18;102116.69;;;5.57;77.44
66945;BME280;53853;51.982;5.928;2023-01-31T05:23:51;102118.16;;;5.63;77.31
66945;BME280;53853;51.982;5.928;2023-01-31T05:26:20;102117.19;;;5.64;77.16
66945;BME280;53853;51.982;5.928;2023-01-31T05:28:50;102118.03;;;5.65;77.24
66945;BME280;53853;51.982;5.928;2023-01-31T05:31:20;102123.22;;;5.66;77.24
66945;BME280;53853;51.982;5.928;2023-01-31T05:33:50;102132.88;;;5.67;77.45
66945;BME280;53853;51.982;5.928;2023-01-31T05:36:20;102131.09;;;5.68;77.37
66945;BME280;53853;51.982;5.928;2023-01-31T05:38:52;102136.47;;;5.66;77.57
66945;BME280;53853;51.982;5.928;2023-01-31T05:41:22;102128.72;;;5.63;77.66
66945;BME280;53853;51.982;5.928;2023-01-31T05:43:52;102119.91;;;5.62;78.05
66945;BME280;53853;51.982;5.928;2023-01-31T05:46:21;102119.84;;;5.64;77.93
66945;BME280;53853;51.982;5.928;2023-01-31T05:48:51;102109.94;;;5.68;77.87
66945;BME280;53853;51.982;5.928;2023-01-31T05:51:21;102103.78;;;5.67;78.00
66945;BME280;53853;51.982;5.928;2023-01-31T05:53:53;102093.22;;;5.67;77.95
66945;BME280;53853;51.982;5.928;2023-01-31T05:56:23;102096.78;;;5.66;77.95
66945;BME280;53853;51.982;5.928;2023-01-31T05:58:53;102088.78;;;5.68;78.07
66945;BME280;53853;51.982;5.928;2023-01-31T06:01:25;102088.00;;;5.66;78.27
66945;BME280;53853;51.982;5.928;2023-01-31T06:03:55;102097.84;;;5.63;78.36
66945;BME280;53853;51.982;5.928;2023-01-31T06:06:25;102102.00;;;5.68;78.30
66945;BME280;53853;51.982;5.928;2023-01-31T06:08:57;102106.34;;;5.69;78.18
66945;BME280;53853;51.982;5.928;2023-01-31T06:11:27;102094.75;;;5.71;78.18
66945;BME280;53853;51.982;5.928;2023-01-31T06:13:57;102091.06;;;5.74;78.24
66945;BME280;53853;51.982;5.928;2023-01-31T06:16:27;102081.19;;;5.77;78.29
66945;BME280;53853;51.982;5.928;2023-01-31T06:18:57;102069.66;;;5.78;78.41
66945;BME280;53853;51.982;5.928;2023-01-31T06:21:27;102060.78;;;5.79;78.45
66945;BME280;53853;51.982;5.928;2023-01-31T06:24:00;102076.47;;;5.83;78.36
66945;BME280;53853;51.982;5.928;2023-01-31T06:26:30;102073.56;;;5.87;78.32
66945;BME280;53853;51.982;5.928;2023-01-31T06:29:00;102074.31;;;5.89;78.20
66945;BME280;53853;51.982;5.928;2023-01-31T06:31:29;102071.69;;;5.89;78.11
66945;BME280;53853;51.982;5.928;2023-01-31T06:33:59;102065.72;;;5.86;78.29
66945;BME280;53853;51.982;5.928;2023-01-31T06:36:31;102060.59;;;5.83;78.33
66945;BME280;53853;51.982;5.928;2023-01-31T06:39:03;102070.44;;;5.80;78.68
66945;BME280;53853;51.982;5.928;2023-01-31T06:41:33;102064.28;;;5.80;78.60
66945;BME280;53853;51.982;5.928;2023-01-31T06:44:03;102060.59;;;5.83;78.62
66945;BME280;53853;51.982;5.928;2023-01-31T06:46:33;102063.06;;;5.86;78.40
66945;BME280;53853;51.982;5.928;2023-01-31T06:49:04;102051.34;;;5.90;78.28
66945;BME280;53853;51.982;5.928;2023-01-31T06:51:34;102061.66;;;5.94;78.13
66945;BME280;53853;51.982;5.928;2023-01-31T06:54:07;102051.91;;;5.96;78.17
66945;BME280;53853;51.982;5.928;2023-01-31T06:56:36;102061.53;;;5.97;78.06
66945;BME280;53853;51.982;5.928;2023-01-31T06:59:06;102058.69;;;6.01;78.05
66945;BME280;53853;51.982;5.928;2023-01-31T07:01:36;102056.81;;;6.03;77.83
66945;BME280;53853;51.982;5.928;2023-01-31T07:04:06;102052.38;;;6.03;77.88
66945;BME280;53853;51.982;5.928;2023-01-31T07:06:36;102040.66;;;6.07;77.68
66945;BME280;53853;51.982;5.928;2023-01-31T07:09:09;102045.03;;;6.08;77.68
66945;BME280;53853;51.982;5.928;2023-01-31T07:11:39;102055.59;;;6.08;77.52
66945;BME280;53853;51.982;5.928;2023-01-31T07:14:09;102036.16;;;6.09;77.44
66945;BME280;53853;51.982;5.928;2023-01-31T07:16:39;102043.13;;;6.10;77.39
66945;BME280;53853;51.982;5.928;2023-01-31T07:19:08;102035.00;;;6.13;77.34
66945;BME280;53853;51.982;5.928;2023-01-31T07:21:38;102033.31;;;6.12;77.16
66945;BME280;53853;51.982;5.928;2023-01-31T07:24:11;102026.31;;;6.11;77.25
66945;BME280;53853;51.982;5.928;2023-01-31T07:26:41;102022.84;;;6.11;77.22
66945;BME280;53853;51.982;5.928;2023-01-31T07:29:11;102032.72;;;6.07;77.06
66945;BME280;53853;51.982;5.928;2023-01-31T07:31:41;102040.75;;;6.06;77.35
66945;BME280;53853;51.982;5.928;2023-01-31T07:34:11;102030.16;;;6.06;77.28
66945;BME280;53853;51.982;5.928;2023-01-31T07:36:41;102027.44;;;6.07;77.23
66945;BME280;53853;51.982;5.928;2023-01-31T07:39:13;102016.00;;;6.07;77.17
66945;BME280;53853;51.982;5.928;2023-01-31T07:41:43;102018.75;;;6.05;77.17
66945;BME280;53853;51.982;5.928;2023-01-31T07:44:14;102016.19;;;6.04;77.17
66945;BME280;53853;51.982;5.928;2023-01-31T07:46:44;102015.34;;;6.03;77.04
66945;BME280;53853;51.982;5.928;2023-01-31T07:49:14;102010.22;;;6.00;77.16
66945;BME280;53853;51.982;5.928;2023-01-31T07:51:44;102014.84;;;5.96;77.29
66945;BME280;53853;51.982;5.928;2023-01-31T07:54:16;102001.53;;;5.98;77.18
66945;BME280;53853;51.982;5.928;2023-01-31T07:56:46;102001.44;;;6.00;77.15
66945;BME280;53853;51.982;5.928;2023-01-31T07:59:16;101997.75;;;6.02;76.93
66945;BME280;53853;51.982;5.928;2023-01-31T08:01:46;102013.72;;;6.01;76.70
66945;BME280;53853;51.982;5.928;2023-01-31T08:04:28;102011.16;;;5.99;76.78
66945;BME280;53853;51.982;5.928;2023-01-31T08:06:58;101997.09;;;5.98;76.36
66945;BME280;53853;51.982;5.928;2023-01-31T08:09:31;102011.31;;;5.96;76.73
66945;BME280;53853;51.982;5.928;2023-01-31T08:12:01;101998.81;;;6.00;76.72
66945;BME280;53853;51.982;5.928;2023-01-31T08:14:31;101993.59;;;5.98;76.63
66945;BME280;53853;51.982;5.928;2023-01-31T08:17:01;101995.94;;;6.03;76.73
66945;BME280;53853;51.982;5.928;2023-01-31T08:19:32;102001.16;;;6.04;76.45
66945;BME280;53853;51.982;5.928;2023-01-31T08:22:03;102006.25;;;6.07;76.47
66945;BME280;53853;51.982;5.928;2023-01-31T08:24:35;102013.84;;;6.13;76.18
66945;BME280;53853;51.982;5.928;2023-01-31T08:27:05;102005.63;;;6.18;75.92
66945;BME280;53853;51.982;5.928;2023-01-31T08:29:35;102001.84;;;6.22;75.49
66945;BME280;53853;51.982;5.928;2023-01-31T08:32:05;101987.19;;;6.16;75.76
66945;BME280;53853;51.982;5.928;2023-01-31T08:34:35;101983.69;;;6.16;75.75
66945;BME280;53853;51.982;5.928;2023-01-31T08:37:05;101978.13;;;6.21;75.62
66945;BME280;53853;51.982;5.928;2023-01-31T08:39:37;101967.34;;;6.24;75.46
66945;BME280;53853;51.982;5.928;2023-01-31T08:42:07;101961.97;;;6.25;75.43
66945;BME280;53853;51.982;5.928;2023-01-31T08:44:37;101960.72;;;6.31;75.54
66945;BME280;53853;51.982;5.928;2023-01-31T08:47:09;101969.44;;;6.33;75.31
66945;BME280;53853;51.982;5.928;2023-01-31T08:49:39;101956.19;;;6.33;75.14
66945;BME280;53853;51.982;5.928;2023-01-31T08:52:09;101955.53;;;6.29;75.34
66945;BME280;53853;51.982;5.928;2023-01-31T08:54:41;101953.38;;;6.36;75.41
66945;BME280;53853;51.982;5.928;2023-01-31T08:57:11;101963.09;;;6.35;75.51
66945;BME280;53853;51.982;5.928;2023-01-31T08:59:41;101961.69;;;6.44;75.30
66945;BME280;53853;51.982;5.928;2023-01-31T09:02:11;101963.38;;;6.45;75.07
66945;BME280;53853;51.982;5.928;2023-01-31T09:04:40;101955.91;;;6.52;75.12
66945;BME280;53853;51.982;5.928;2023-01-31T09:07:10;101953.16;;;6.53;74.77
66945;BME280;53853;51.982;5.928;2023-01-31T09:09:43;101950.81;;;6.49;74.64
66945;BME280;53853;51.982;5.928;2023-01-31T09:12:12;101946.81;;;6.42;75.10
66945;BME280;53853;51.982;5.928;2023-01-31T09:14:42;101954.97;;;6.39;75.31
66945;BME280;53853;51.982;5.928;2023-01-31T09:17:12;101958.84;;;6.47;75.35
66945;BME280;53853;51.982;5.928;2023-01-31T09:19:42;101959.31;;;6.54;74.97
66945;BME280;53853;51.982;5.928;2023-01-31T09:22:13;101947.47;;;6.60;74.82
66945;BME280;53853;51.982;5.928;2023-01-31T09:24:46;101943.22;;;6.57;74.87
66945;BME280;53853;51.982;5.928;2023-01-31T09:27:16;101939.31;;;6.63;74.84
66945;BME280;53853;51.982;5.928;2023-01-31T09:29:46;101931.38;;;6.63;74.52
66945;BME280;53853;51.982;5.928;2023-01-31T09:32:16;101940.47;;;6.59;74.77
66945;BME280;53853;51.982;5.928;2023-01-31T09:34:47;101932.53;;;6.59;74.71
66945;BME280;53853;51.982;5.928;2023-01-31T09:37:17;101929.88;;;6.59;75.00
66945;BME280;53853;51.982;5.928;2023-01-31T09:39:49;101938.56;;;6.61;74.68
66945;BME280;53853;51.982;5.928;2023-01-31T09:42:22;101945.50;;;6.63;74.89
66945;BME280;53853;51.982;5.928;2023-01-31T09:44:59;101949.34;;;6.72;74.77
66945;BME280;53853;51.982;5.928;2023-01-31T09:47:35;101939.72;;;6.71;74.65
66945;BME280;53853;51.982;5.928;2023-01-31T09:50:25;101937.06;;;6.71;74.46
66945;BME280;53853;51.982;5.928;2023-01-31T09:52:58;101937.06;;;6.71;74.68
66945;BME280;53853;51.982;5.928;2023-01-31T09:55:35;101942.91;;;6.76;74.94
66945;BME280;53853;51.982;5.928;2023-01-31T09:58:15;101927.75;;;6.78;74.88
66945;BME280;53853;51.982;5.928;2023-01-31T10:00:53;101934.56;;;6.82;74.83
66945;BME280;53853;51.982;5.928;2023-01-31T10:03:41;101946.66;;;6.86;74.56
66945;BME280;53853;51.982;5.928;2023-01-31T10:06:17;101928.00;;;6.88;74.67
66945;BME280;53853;51.982;5.928;2023-01-31T10:08:54;101934.81;;;6.92;74.50
66945;BME280;53853;51.982;5.928;2023-01-31T10:11:34;101935.47;;;6.96;74.57
66945;BME280;53853;51.982;5.928;2023-01-31T10:14:18;101930.16;;;6.96;74.55
66945;BME280;53853;51.982;5.928;2023-01-31T10:16:57;101921.28;;;6.97;74.62
66945;BME280;53853;51.982;5.928;2023-01-31T10:19:34;101928.25;;;6.98;74.79
66945;BME280;53853;51.982;5.928;2023-01-31T10:22:09;101926.19;;;7.03;74.98
66945;BME280;53853;51.982;5.928;2023-01-31T10:24:44;101914.50;;;7.05;74.95
66945;BME280;53853;51.982;5.928;2023-01-31T10:27:30;101920.84;;;7.17;74.56
66945;BME280;53853;51.982;5.928;2023-01-31T10:30:05;101924.03;;;7.22;74.29
66945;BME280;53853;51.982;5.928;2023-01-31T10:32:42;101918.41;;;7.27;74.50
66945;BME280;53853;51.982;5.928;2023-01-31T10:35:18;101912.59;;;7.35;74.40
66945;BME280;53853;51.982;5.928;2023-01-31T10:37:53;101909.66;;;7.39;74.17
66945;BME280;53853;51.982;5.928;2023-01-31T10:40:29;101911.03;;;7.45;74.11
66945;BME280;53853;51.982;5.928;2023-01-31T10:43:13;101898.53;;;7.47;74.05
66945;BME280;53853;51.982;5.928;2023-01-31T10:45:44;101912.44;;;7.51;73.98
66945;BME280;53853;51.982;5.928;2023-01-31T10:48:16;101906.91;;;7.54;74.13
66945;BME280;53853;51.982;5.928;2023-01-31T10:50:57;101900.22;;;7.61;74.15
66945;BME280;53853;51.982;5.928;2023-01-31T10:53:48;101891.00;;;7.67;74.17
66945;BME280;53853;51.982;5.928;2023-01-31T10:56:25;101884.41;;;7.72;74.10
66945;BME280;53853;51.982;5.928;2023-01-31T10:59:01;101896.44;;;7.78;74.16
66945;BME280;53853;51.982;5.928;2023-01-31T11:01:34;101885.59;;;7.81;73.91
66945;BME280;53853;51.982;5.928;2023-01-31T11:04:21;101900.69;;;7.80;74.11
66945;BME280;53853;51.982;5.928;2023-01-31T11:06:51;101891.13;;;7.78;74.28
66945;BME280;53853;51.982;5.928;2023-01-31T11:09:23;101896.84;;;7.85;74.35
66945;BME280;53853;51.982;5.928;2023-01-31T11:11:55;101890.38;;;7.89;74.25
66945;BME280;53853;51.982;5.928;2023-01-31T11:14:28;101879.03;;;7.87;74.23
66945;BME280;53853;51.982;5.928;2023-01-31T11:17:01;101872.66;;;7.89;74.15
66945;BME280;53853;51.982;5.928;2023-01-31T11:19:36;101872.84;;;7.86;74.51
66945;BME280;53853;51.982;5.928;2023-01-31T11:22:07;101874.56;;;7.87;74.66
66945;BME280;53853;51.982;5.928;2023-01-31T11:24:47;101876.50;;;7.85;74.80
66945;BME280;53853;51.982;5.928;2023-01-31T11:27:25;101867.66;;;7.85;75.16
66945;BME280;53853;51.982;5.928;2023-01-31T11:29:59;101884.25;;;7.88;75.25
66945;BME280;53853;51.982;5.928;2023-01-31T11:32:31;101878.59;;;7.93;74.92
66945;BME280;53853;51.982;5.928;2023-01-31T11:35:09;101883.47;;;7.86;75.45
66945;BME280;53853;51.982;5.928;2023-01-31T11:37:52;101873.72;;;7.87;75.54
66945;BME280;53853;51.982;5.928;2023-01-31T11:40:26;101865.31;;;7.93;75.58
66945;BME280;53853;51.982;5.928;2023-01-31T11:42:58;101863.53;;;7.93;75.54
66945;BME280;53853;51.982;5.928;2023-01-31T11:45:32;101858.09;;;7.95;75.69
66945;BME280;53853;51.982;5.928;2023-01-31T11:48:06;101861.59;;;7.95;75.92
66945;BME280;53853;51.982;5.928;2023-01-31T11:50:41;101842.81;;;7.98;76.16
66945;BME280;53853;51.982;5.928;2023-01-31T11:53:18;101842.59;;;8.02;76.10
66945;BME280;53853;51.982;5.928;2023-01-31T11:55:51;101834.63;;;8.02;76.36
66945;BME280;53853;51.982;5.928;2023-01-31T11:58:24;101843.44;;;8.02;76.82
66945;BME280;53853;51.982;5.928;2023-01-31T12:01:07;101841.00;;;7.99;77.58
66945;BME280;53853;51.982;5.928;2023-01-31T12:03:46;101841.00;;;7.99;78.01
66945;BME280;53853;51.982;5.928;2023-01-31T12:06:27;101832.41;;;7.95;78.69
66945;BME280;53853;51.982;5.928;2023-01-31T12:08:59;101840.78;;;7.89;79.34
66945;BME280;53853;51.982;5.928;2023-01-31T12:11:34;101841.66;;;7.90;79.89
66945;BME280;53853;51.982;5.928;2023-01-31T12:14:13;101836.22;;;7.91;80.18
66945;BME280;53853;51.982;5.928;2023-01-31T12:16:47;101842.28;;;7.93;80.50
66945;BME280;53853;51.982;5.928;2023-01-31T12:19:28;101835.16;;;7.94;81.11
66945;BME280;53853;51.982;5.928;2023-01-31T12:22:04;101838.47;;;7.85;81.97
66945;BME280;53853;51.982;5.928;2023-01-31T12:24:46;101844.75;;;7.84;82.47
66945;BME280;53853;51.982;5.928;2023-01-31T12:27:28;101840.59;;;7.79;82.94
66945;BME280;53853;51.982;5.928;2023-01-31T12:30:16;101834.25;;;7.82;83.20
66945;BME280;53853;51.982;5.928;2023-01-31T12:33:00;101839.75;;;7.79;83.60
66945;BME280;53853;51.982;5.928;2023-01-31T12:35:43;101837.31;;;7.76;83.83
66945;BME280;53853;51.982;5.928;2023-01-31T12:38:35;101839.75;;;7.79;83.79
66945;BME280;53853;51.982;5.928;2023-01-31T12:41:18;101832.22;;;7.73;84.33
66945;BME280;53853;51.982;5.928;2023-01-31T12:44:06;101832.75;;;7.78;84.55
66945;BME280;53853;51.982;5.928;2023-01-31T12:46:50;101830.94;;;7.78;84.46
66945;BME280;53853;51.982;5.928;2023-01-31T12:52:42;101818.53;;;7.79;85.06
66945;BME280;53853;51.982;5.928;2023-01-31T12:55:23;101818.63;;;7.77;85.20
66945;BME280;53853;51.982;5.928;2023-01-31T12:58:10;101817.66;;;7.78;85.37
66945;BME280;53853;51.982;5.928;2023-01-31T13:00:50;101816.81;;;7.78;85.29
66945;BME280;53853;51.982;5.928;2023-01-31T13:03:33;101813.84;;;7.83;85.28
66945;BME280;53853;51.982;5.928;2023-01-31T13:06:09;101815.78;;;7.80;85.37
66945;BME280;53853;51.982;5.928;2023-01-31T13:08:48;101803.22;;;7.83;85.30
66945;BME280;53853;51.982;5.928;2023-01-31T13:11:24;101808.31;;;7.86;85.26
66945;BME280;53853;51.982;5.928;2023-01-31T13:14:00;101788.69;;;7.88;84.91
66945;BME280;53853;51.982;5.928;2023-01-31T13:16:34;101790.47;;;7.88;85.01
66945;BME280;53853;51.982;5.928;2023-01-31T13:19:09;101788.59;;;7.90;85.09
66945;BME280;53853;51.982;5.928;2023-01-31T13:21:45;101790.88;;;7.94;85.28
66945;BME280;53853;51.982;5.928;2023-01-31T13:24:20;101784.41;;;7.98;84.96
66945;BME280;53853;51.982;5.928;2023-01-31T13:26:57;101799.78;;;8.06;84.78
66945;BME280;53853;51.982;5.928;2023-01-31T13:29:31;101791.94;;;8.05;84.86
66945;BME280;53853;51.982;5.928;2023-01-31T13:32:03;101793.41;;;8.09;84.81
66945;BME280;53853;51.982;5.928;2023-01-31T13:34:38;101794.03;;;8.12;84.74
66945;BME280;53853;51.982;5.928;2023-01-31T13:37:11;101791.69;;;8.21;84.62
66945;BME280;53853;51.982;5.928;2023-01-31T13:39:51;101794.84;;;8.26;84.25
66945;BME280;53853;51.982;5.928;2023-01-31T13:42:23;101791.84;;;8.30;84.04
66945;BME280;53853;51.982;5.928;2023-01-31T13:44:54;101791.63;;;8.33;83.94